Time;durP1;ratioP1;P1;durP2;ratioP2;P2;SDS_P1;SDS_P2;PMS_P1;PMS_P2;Temp;Humidity;BMP_temperature;BMP_pressure;BME280_temperature;BME280_humidity;BME280_pressure;Samples;Min_cycle;Max_cycle;Signal;HPM_P1;HPM_P2
2021/08/03 00:04:18;;;;;;;6.70;2.95;;;;;;;;;;5111957;27;20397;-71
2021/08/03 00:06:46;;;;;;;9.18;3.80;;;;;;;;;;5110145;28;20051;-71
2021/08/03 00:09:12;;;;;;;8.68;3.45;;;;;;;;;;5111004;28;20375;-71
2021/08/03 00:11:42;;;;;;;13.85;3.90;;;;;;;;;;5111344;28;20108;-71
2021/08/03 00:14:09;;;;;;;9.52;3.35;;;;;;;;;;5111473;28;20046;-70
2021/08/03 00:16:36;;;;;;;6.65;3.20;;;;;;;;;;5110755;28;20047;-71
2021/08/03 00:19:02;;;;;;;9.10;3.72;;;;;;;;;;5111427;28;20066;-71
2021/08/03 00:21:28;;;;;;;7.97;3.60;;;;;;;;;;5111048;28;20024;-71
2021/08/03 00:23:55;;;;;;;9.00;3.50;;;;;;;;;;5110998;28;20032;-70
2021/08/03 00:26:22;;;;;;;7.18;3.00;;;;;;;;;;5110993;28;20099;-70
2021/08/03 00:28:52;;;;;;;9.88;3.72;;;;;;;;;;5110531;28;20024;-71
2021/08/03 00:32:28;;;;;;;8.90;3.50;;;;;;;;;;5111787;27;20393;-71
2021/08/03 00:34:54;;;;;;;8.98;3.50;;;;;;;;;;5111355;28;20024;-71
2021/08/03 00:37:51;;;;;;;7.13;3.45;;;;;;;;;;5111608;27;20381;-71
2021/08/03 00:42:03;;;;;;;12.82;4.07;;;;;;;;;;5111688;27;20396;-71
2021/08/03 00:44:44;;;;;;;7.55;3.33;;;;;;;;;;5111060;28;20426;-72
2021/08/03 00:47:10;;;;;;;7.68;3.78;;;;;;;;;;5111594;28;20020;-71
2021/08/03 00:49:37;;;;;;;7.25;3.55;;;;;;;;;;5111560;28;20020;-71
2021/08/03 00:52:04;;;;;;;12.38;4.55;;;;;;;;;;5111111;28;20483;-71
2021/08/03 00:54:30;;;;;;;8.75;3.92;;;;;;;;;;5109889;28;20392;-71
2021/08/03 00:56:57;;;;;;;10.77;4.38;;;;;;;;;;5109424;28;20113;-71
2021/08/03 01:00:45;;;;;;;10.27;4.03;;;;;;;;;;5070753;28;20802;-71
2021/08/03 01:03:12;;;;;;;10.77;4.03;;;;;;;;;;5070869;28;20039;-71
2021/08/03 01:05:41;;;;;;;9.25;4.50;;;;;;;;;;5070457;28;20025;-71
2021/08/03 01:08:12;;;;;;;13.50;4.05;;;;;;;;;;5070976;28;20025;-71
2021/08/03 01:10:46;;;;;;;8.40;4.05;;;;;;;;;;5070943;28;20032;-71
2021/08/03 01:13:22;;;;;;;7.10;3.63;;;;;;;;;;5070812;28;20461;-71
2021/08/03 01:15:54;;;;;;;9.20;4.05;;;;;;;;;;5070527;28;20066;-71
2021/08/03 01:20:30;;;;;;;13.55;4.97;;;;;;;;;;5111860;27;20775;-71
2021/08/03 01:23:05;;;;;;;10.48;4.20;;;;;;;;;;5110115;28;20032;-70
2021/08/03 01:25:31;;;;;;;10.43;3.88;;;;;;;;;;5111200;28;20095;-71
2021/08/03 01:28:00;;;;;;;8.23;4.43;;;;;;;;;;5111291;28;20065;-71
2021/08/03 01:30:27;;;;;;;12.68;4.93;;;;;;;;;;5111343;28;20023;-71
2021/08/03 01:32:55;;;;;;;10.98;5.00;;;;;;;;;;5110794;28;20028;-70
2021/08/03 01:35:22;;;;;;;9.50;4.22;;;;;;;;;;5111376;28;20077;-71
2021/08/03 01:37:49;;;;;;;6.13;3.00;;;;;;;;;;5111157;28;20038;-71
2021/08/03 01:40:15;;;;;;;7.22;3.10;;;;;;;;;;5109452;28;20035;-71
2021/08/03 01:42:43;;;;;;;9.82;3.78;;;;;;;;;;5111080;28;20357;-70
2021/08/03 01:46:03;;;;;;;8.23;3.40;;;;;;;;;;5070452;28;20438;-70
2021/08/03 01:48:30;;;;;;;9.75;3.20;;;;;;;;;;5070925;28;20473;-70
2021/08/03 01:50:58;;;;;;;8.15;3.08;;;;;;;;;;5070727;28;20389;-71
2021/08/03 01:53:25;;;;;;;8.35;3.20;;;;;;;;;;5070290;28;20495;-71
2021/08/03 01:55:56;;;;;;;7.00;2.80;;;;;;;;;;5070893;28;20060;-71
2021/08/03 01:58:23;;;;;;;10.70;2.97;;;;;;;;;;5070650;28;20032;-70
2021/08/03 02:00:51;;;;;;;7.18;3.00;;;;;;;;;;5070258;28;20123;-71
2021/08/03 02:03:19;;;;;;;4.65;2.78;;;;;;;;;;5070485;28;20461;-70
2021/08/03 02:05:46;;;;;;;4.03;2.20;;;;;;;;;;5069103;28;20032;-71
2021/08/03 02:08:13;;;;;;;5.45;2.83;;;;;;;;;;5070132;28;20388;-71
2021/08/03 02:10:40;;;;;;;4.38;2.17;;;;;;;;;;5069115;28;20041;-71
2021/08/03 02:13:06;;;;;;;6.95;2.45;;;;;;;;;;5069053;28;20021;-70
2021/08/03 02:15:33;;;;;;;6.88;3.33;;;;;;;;;;5068536;28;20036;-70
2021/08/03 02:17:59;;;;;;;5.85;2.88;;;;;;;;;;5070195;28;20096;-70
2021/08/03 02:20:25;;;;;;;5.22;2.50;;;;;;;;;;5068886;28;20051;-70
2021/08/03 02:22:52;;;;;;;10.27;2.88;;;;;;;;;;5069725;28;20031;-71
2021/08/03 02:25:18;;;;;;;8.35;3.40;;;;;;;;;;5070264;28;20067;-71
2021/08/03 02:27:44;;;;;;;6.80;3.00;;;;;;;;;;5070122;28;20376;-71
2021/08/03 02:30:11;;;;;;;7.43;2.20;;;;;;;;;;5068321;28;20116;-70
2021/08/03 02:32:56;;;;;;;5.88;2.67;;;;;;;;;;5068657;28;20048;-70
2021/08/03 02:35:28;;;;;;;7.57;3.30;;;;;;;;;;5069910;28;20091;-70
2021/08/03 02:38:00;;;;;;;4.15;2.20;;;;;;;;;;5068523;28;20575;-70
2021/08/03 02:40:26;;;;;;;6.53;2.90;;;;;;;;;;5069797;28;20036;-70
2021/08/03 02:42:54;;;;;;;8.80;2.95;;;;;;;;;;5069310;28;20024;-70
2021/08/03 02:46:00;;;;;;;8.20;2.55;;;;;;;;;;5111560;27;20381;-70
2021/08/03 02:48:26;;;;;;;7.60;2.53;;;;;;;;;;5111491;28;20046;-70
2021/08/03 02:50:53;;;;;;;6.55;2.40;;;;;;;;;;5109613;28;20288;-70
2021/08/03 02:54:30;;;;;;;8.50;3.63;;;;;;;;;;5111579;27;20393;-71
2021/08/03 02:56:57;;;;;;;12.30;2.80;;;;;;;;;;5109707;28;20035;-71
2021/08/03 02:59:57;;;;;;;7.18;2.67;;;;;;;;;;5071312;28;20482;-71
2021/08/03 03:02:24;;;;;;;8.80;2.78;;;;;;;;;;5069557;28;20025;-71
2021/08/03 03:05:24;;;;;;;6.43;2.30;;;;;;;;;;5070522;28;20796;-70
2021/08/03 03:07:53;;;;;;;5.57;2.53;;;;;;;;;;5071082;28;20036;-70
2021/08/03 03:12:05;;;;;;;3.83;2.10;;;;;;;;;;5111122;27;20397;-70
2021/08/03 03:14:34;;;;;;;7.82;2.58;;;;;;;;;;5111404;28;20019;-71
2021/08/03 03:17:02;;;;;;;4.78;2.20;;;;;;;;;;5111252;28;20456;-70
2021/08/03 03:20:24;;;;;;;8.32;3.03;;;;;;;;;;5111729;27;20431;-70
2021/08/03 03:22:51;;;;;;;5.90;2.67;;;;;;;;;;5111371;28;20422;-71
2021/08/03 03:25:20;;;;;;;5.95;2.35;;;;;;;;;;5109606;28;20037;-70
2021/08/03 03:27:48;;;;;;;4.90;2.50;;;;;;;;;;5109935;28;20016;-71
2021/08/03 03:30:15;;;;;;;7.10;2.33;;;;;;;;;;5111295;28;20378;-70
2021/08/03 03:32:41;;;;;;;10.77;3.65;;;;;;;;;;5109488;28;20100;-71
2021/08/03 03:35:08;;;;;;;9.45;2.33;;;;;;;;;;5111087;28;20024;-71
2021/08/03 03:37:34;;;;;;;4.88;2.50;;;;;;;;;;5109876;28;20031;-70
2021/08/03 03:40:01;;;;;;;5.75;2.63;;;;;;;;;;5110600;28;20031;-70
2021/08/03 03:43:09;;;;;;;5.00;2.45;;;;;;;;;;5086568;28;20433;-70
2021/08/03 03:45:36;;;;;;;5.40;2.30;;;;;;;;;;5070596;28;20438;-71
2021/08/03 03:48:05;;;;;;;6.32;2.35;;;;;;;;;;5070742;28;20100;-70
2021/08/03 03:50:36;;;;;;;4.22;2.20;;;;;;;;;;5070578;28;20033;-71
2021/08/03 03:53:10;;;;;;;5.93;2.45;;;;;;;;;;5069027;28;20032;-71
2021/08/03 03:55:37;;;;;;;7.65;2.63;;;;;;;;;;5070887;28;20028;-71
2021/08/03 03:58:04;;;;;;;4.90;2.20;;;;;;;;;;5070607;28;20111;-71
2021/08/03 04:00:34;;;;;;;12.75;3.13;;;;;;;;;;5070251;28;20017;-70
2021/08/03 04:03:01;;;;;;;5.18;2.17;;;;;;;;;;5070424;28;20037;-70
2021/08/03 04:05:30;;;;;;;4.57;2.13;;;;;;;;;;5069167;28;20078;-71
2021/08/03 04:07:56;;;;;;;3.20;1.85;;;;;;;;;;5070157;28;20078;-70
2021/08/03 04:10:52;;;;;;;6.10;2.80;;;;;;;;;;5112297;27;20389;-71
2021/08/03 04:13:56;;;;;;;5.43;2.30;;;;;;;;;;5111713;27;20513;-71
2021/08/03 04:16:22;;;;;;;7.72;2.72;;;;;;;;;;5111360;28;20028;-70
2021/08/03 04:18:48;;;;;;;5.35;2.50;;;;;;;;;;5111315;28;20063;-71
2021/08/03 04:22:08;;;;;;;6.03;2.80;;;;;;;;;;5110960;27;20310;-70
2021/08/03 04:24:34;;;;;;;5.80;2.55;;;;;;;;;;5111372;28;20035;-71
2021/08/03 04:27:01;;;;;;;6.55;2.55;;;;;;;;;;5111460;28;20436;-70
2021/08/03 04:29:27;;;;;;;6.15;2.70;;;;;;;;;;5110840;28;20031;-71
2021/08/03 04:31:54;;;;;;;6.07;2.60;;;;;;;;;;5111501;28;20082;-70
2021/08/03 04:34:20;;;;;;;7.47;2.22;;;;;;;;;;5111158;28;20031;-71
2021/08/03 04:38:06;;;;;;;6.10;2.35;;;;;;;;;;5112276;27;20389;-71
2021/08/03 04:40:32;;;;;;;7.35;2.83;;;;;;;;;;5111407;28;20507;-71
2021/08/03 04:42:58;;;;;;;6.88;3.92;;;;;;;;;;5110935;28;20046;-71
2021/08/03 04:46:17;;;;;;;7.97;3.55;;;;;;;;;;5111420;27;20400;-71
2021/08/03 04:48:44;;;;;;;7.30;3.28;;;;;;;;;;5111120;28;20062;-71
2021/08/03 04:51:10;;;;;;;8.23;4.05;;;;;;;;;;5111627;28;20429;-71
2021/08/03 04:53:36;;;;;;;7.35;3.13;;;;;;;;;;5111243;28;20027;-71
2021/08/03 04:56:02;;;;;;;8.45;3.28;;;;;;;;;;5110828;28;20428;-71
2021/08/03 04:58:29;;;;;;;8.98;3.75;;;;;;;;;;5111193;28;20334;-71
2021/08/03 05:00:55;;;;;;;17.38;3.97;;;;;;;;;;5111294;28;20020;-70
2021/08/03 05:04:36;;;;;;;9.82;3.75;;;;;;;;;;5111079;27;20912;-71
2021/08/03 05:07:03;;;;;;;5.53;2.92;;;;;;;;;;5111342;28;20434;-71
2021/08/03 05:09:29;;;;;;;9.95;2.75;;;;;;;;;;5111308;28;20102;-70
2021/08/03 05:12:39;;;;;;;7.65;3.30;;;;;;;;;;5111781;27;20880;-71
2021/08/03 05:15:06;;;;;;;9.82;2.88;;;;;;;;;;5111394;28;20024;-71
2021/08/03 05:17:32;;;;;;;9.43;3.17;;;;;;;;;;5109539;28;20032;-71
2021/08/03 05:22:11;;;;;;;7.03;2.40;;;;;;;;;;5111324;27;20961;-70
2021/08/03 05:24:37;;;;;;;4.35;2.13;;;;;;;;;;5110898;28;20391;-70
2021/08/03 05:27:04;;;;;;;5.28;2.28;;;;;;;;;;5111329;28;20023;-70
2021/08/03 05:29:31;;;;;;;4.57;2.05;;;;;;;;;;5110039;28;20475;-70
2021/08/03 05:31:57;;;;;;;7.65;2.35;;;;;;;;;;5110810;28;20069;-70
2021/08/03 05:34:24;;;;;;;2.42;1.70;;;;;;;;;;5111234;28;20099;-73
2021/08/03 05:36:50;;;;;;;4.65;2.35;;;;;;;;;;5111156;28;20476;-71
2021/08/03 05:39:16;;;;;;;5.78;2.50;;;;;;;;;;5109379;28;20077;-71
2021/08/03 05:41:43;;;;;;;7.22;2.35;;;;;;;;;;5110945;28;20067;-71
2021/08/03 05:44:09;;;;;;;7.10;2.50;;;;;;;;;;5111022;28;20471;-71
2021/08/03 05:46:35;;;;;;;6.32;2.83;;;;;;;;;;5110615;28;20028;-71
2021/08/03 05:49:02;;;;;;;3.83;2.13;;;;;;;;;;5109672;28;20111;-71
2021/08/03 05:51:28;;;;;;;4.95;2.33;;;;;;;;;;5110818;28;20020;-71
2021/08/03 05:53:54;;;;;;;7.32;2.95;;;;;;;;;;5110461;28;20020;-71
2021/08/03 05:56:20;;;;;;;6.28;2.70;;;;;;;;;;5111361;28;20027;-71
2021/08/03 05:58:47;;;;;;;5.07;2.50;;;;;;;;;;5110654;28;20540;-71
2021/08/03 06:01:13;;;;;;;6.25;2.45;;;;;;;;;;5110095;28;20039;-71
2021/08/03 06:03:39;;;;;;;6.28;2.40;;;;;;;;;;5110783;28;20043;-72
2021/08/03 06:07:04;;;;;;;5.60;2.90;;;;;;;;;;5111155;27;20920;-70
2021/08/03 06:09:32;;;;;;;5.22;2.92;;;;;;;;;;5111320;28;20060;-70
2021/08/03 06:12:02;;;;;;;10.18;3.33;;;;;;;;;;5111459;28;20024;-70
2021/08/03 06:14:36;;;;;;;6.30;2.25;;;;;;;;;;5110973;28;20046;-70
2021/08/03 06:17:03;;;;;;;13.32;3.17;;;;;;;;;;5109901;28;20069;-71
2021/08/03 06:19:35;;;;;;;6.15;2.40;;;;;;;;;;5109847;28;20026;-71
2021/08/03 06:22:01;;;;;;;4.45;2.20;;;;;;;;;;5110768;28;20020;-71
2021/08/03 06:24:29;;;;;;;7.00;2.85;;;;;;;;;;5111145;28;20020;-71
2021/08/03 06:26:57;;;;;;;7.35;3.35;;;;;;;;;;5111159;28;20081;-71
2021/08/03 06:29:24;;;;;;;5.68;2.35;;;;;;;;;;5110594;28;20035;-71
2021/08/03 06:31:51;;;;;;;4.80;2.40;;;;;;;;;;5110866;28;20088;-70
2021/08/03 06:34:17;;;;;;;6.25;2.90;;;;;;;;;;5110539;28;20024;-71
2021/08/03 06:36:43;;;;;;;5.35;2.30;;;;;;;;;;5110940;28;20024;-71
2021/08/03 06:39:09;;;;;;;5.35;2.10;;;;;;;;;;5110985;28;20030;-70
2021/08/03 06:41:42;;;;;;;5.97;2.67;;;;;;;;;;5110329;28;20027;-70
2021/08/03 06:44:11;;;;;;;6.78;2.80;;;;;;;;;;5110941;28;20031;-71
2021/08/03 06:46:38;;;;;;;6.18;2.85;;;;;;;;;;5110561;28;20035;-71
2021/08/03 06:49:08;;;;;;;5.65;2.75;;;;;;;;;;5108871;28;20472;-71
2021/08/03 06:51:38;;;;;;;8.00;3.42;;;;;;;;;;5110518;28;20032;-71
2021/08/03 06:54:06;;;;;;;7.00;3.15;;;;;;;;;;5109199;28;20028;-72
2021/08/03 06:56:52;;;;;;;10.35;2.85;;;;;;;;;;5110227;28;20084;-72
2021/08/03 06:59:19;;;;;;;8.85;3.00;;;;;;;;;;5110832;28;20034;-71
2021/08/03 07:01:45;;;;;;;9.85;3.67;;;;;;;;;;5110327;28;20103;-72
2021/08/03 07:04:13;;;;;;;8.00;3.50;;;;;;;;;;5110006;28;20020;-71
2021/08/03 07:06:44;;;;;;;14.00;4.50;;;;;;;;;;5109993;28;20056;-71
2021/08/03 07:09:10;;;;;;;9.63;3.40;;;;;;;;;;5108965;28;20426;-71
2021/08/03 07:11:39;;;;;;;8.55;3.70;;;;;;;;;;5109772;28;20364;-71
2021/08/03 07:14:05;;;;;;;7.97;3.28;;;;;;;;;;5110059;28;20095;-71
2021/08/03 07:16:32;;;;;;;5.43;2.53;;;;;;;;;;5106534;28;20021;-72
2021/08/03 07:18:58;;;;;;;7.45;3.50;;;;;;;;;;5096651;28;20039;-72
2021/08/03 07:21:25;;;;;;;7.35;3.30;;;;;;;;;;5095111;28;20028;-72
2021/08/03 07:23:56;;;;;;;13.18;3.90;;;;;;;;;;5094680;28;20036;-71
2021/08/03 07:26:22;;;;;;;9.80;3.33;;;;;;;;;;5096563;28;20024;-71
2021/08/03 07:28:49;;;;;;;6.57;3.25;;;;;;;;;;5096201;28;20142;-71
2021/08/03 07:31:15;;;;;;;5.85;2.80;;;;;;;;;;5095818;28;20020;-72
2021/08/03 07:33:41;;;;;;;6.93;3.30;;;;;;;;;;5096327;28;20020;-72
2021/08/03 07:36:07;;;;;;;6.90;3.53;;;;;;;;;;5095825;28;20028;-71
2021/08/03 07:38:33;;;;;;;5.90;3.35;;;;;;;;;;5095640;28;20024;-71
2021/08/03 07:41:00;;;;;;;20.98;4.95;;;;;;;;;;5096008;28;20024;-71
2021/08/03 07:43:26;;;;;;;9.13;4.03;;;;;;;;;;5095968;28;20093;-71
2021/08/03 07:45:52;;;;;;;7.43;3.72;;;;;;;;;;5095402;28;20487;-72
2021/08/03 07:48:18;;;;;;;9.52;4.43;;;;;;;;;;5096047;28;20480;-72
2021/08/03 07:50:44;;;;;;;7.75;4.22;;;;;;;;;;5095651;28;20012;-72
2021/08/03 07:53:11;;;;;;;9.60;3.92;;;;;;;;;;5095430;28;20020;-72
2021/08/03 07:55:37;;;;;;;16.20;4.30;;;;;;;;;;5095659;28;20461;-72
2021/08/03 07:58:03;;;;;;;9.45;4.18;;;;;;;;;;5094260;28;20039;-72
2021/08/03 08:00:29;;;;;;;8.80;4.43;;;;;;;;;;5095290;28;20384;-71
2021/08/03 08:02:56;;;;;;;9.32;4.53;;;;;;;;;;5095477;28;20020;-72
2021/08/03 08:05:23;;;;;;;10.27;5.40;;;;;;;;;;5095255;28;20561;-72
2021/08/03 08:07:49;;;;;;;9.02;4.32;;;;;;;;;;5095129;28;20024;-72
2021/08/03 08:10:15;;;;;;;6.85;3.90;;;;;;;;;;5095448;28;20044;-72
2021/08/03 08:12:41;;;;;;;9.15;5.05;;;;;;;;;;5095048;28;20024;-72
2021/08/03 08:15:08;;;;;;;9.70;4.72;;;;;;;;;;5095410;28;20497;-72
2021/08/03 08:17:34;;;;;;;9.15;4.03;;;;;;;;;;5095300;28;20039;-72
2021/08/03 08:20:00;;;;;;;11.07;3.90;;;;;;;;;;5094859;28;20505;-72
2021/08/03 08:22:26;;;;;;;8.90;4.53;;;;;;;;;;5093866;28;20031;-72
2021/08/03 08:24:52;;;;;;;7.22;4.15;;;;;;;;;;5095302;28;20026;-72
2021/08/03 08:27:18;;;;;;;8.23;3.40;;;;;;;;;;5094950;28;20032;-72
2021/08/03 08:29:45;;;;;;;10.05;4.20;;;;;;;;;;5094144;28;20024;-72
2021/08/03 08:32:11;;;;;;;8.13;4.43;;;;;;;;;;5095031;28;20035;-72
2021/08/03 08:34:37;;;;;;;9.70;4.65;;;;;;;;;;5094765;28;20020;-72
2021/08/03 08:37:04;;;;;;;8.15;3.70;;;;;;;;;;5094985;28;20020;-72
2021/08/03 08:39:30;;;;;;;7.43;3.65;;;;;;;;;;5094933;28;20031;-72
2021/08/03 08:41:57;;;;;;;7.10;3.53;;;;;;;;;;5094466;28;20020;-71
2021/08/03 08:44:23;;;;;;;7.05;3.75;;;;;;;;;;5095192;28;20099;-72
2021/08/03 08:46:51;;;;;;;7.40;3.70;;;;;;;;;;5094698;28;20042;-72
2021/08/03 08:49:18;;;;;;;6.22;3.15;;;;;;;;;;5094502;28;20044;-71
2021/08/03 08:51:44;;;;;;;7.25;3.25;;;;;;;;;;5094649;28;20439;-72
2021/08/03 08:54:10;;;;;;;7.35;2.95;;;;;;;;;;5094650;28;20091;-71
2021/08/03 08:56:36;;;;;;;9.50;3.40;;;;;;;;;;5092950;28;20020;-72
2021/08/03 08:59:02;;;;;;;8.65;3.75;;;;;;;;;;5094616;28;20174;-72
2021/08/03 09:01:29;;;;;;;10.07;4.28;;;;;;;;;;5093196;28;20047;-72
2021/08/03 09:03:55;;;;;;;9.48;3.67;;;;;;;;;;5094017;28;20081;-70
2021/08/03 09:06:22;;;;;;;9.68;3.75;;;;;;;;;;5094111;28;20148;-71
2021/08/03 09:08:49;;;;;;;5.78;2.92;;;;;;;;;;5094337;28;20104;-70
2021/08/03 09:11:23;;;;;;;10.30;3.58;;;;;;;;;;5093888;28;20031;-70
2021/08/03 09:14:02;;;;;;;6.53;3.28;;;;;;;;;;5094263;28;20422;-70
2021/08/03 09:16:42;;;;;;;10.77;4.07;;;;;;;;;;5093905;28;20016;-70
2021/08/03 09:19:26;;;;;;;8.27;3.88;;;;;;;;;;5092896;28;20035;-70
2021/08/03 09:22:09;;;;;;;8.88;4.43;;;;;;;;;;5092901;28;20380;-71
2021/08/03 09:24:35;;;;;;;9.57;5.05;;;;;;;;;;5093813;28;20028;-70
2021/08/03 09:27:01;;;;;;;6.50;3.75;;;;;;;;;;5094262;28;20085;-70
2021/08/03 09:29:27;;;;;;;8.93;4.45;;;;;;;;;;5094066;28;20020;-70
2021/08/03 09:31:55;;;;;;;9.70;4.47;;;;;;;;;;5092284;28;20036;-71
2021/08/03 09:34:21;;;;;;;8.15;3.92;;;;;;;;;;5094015;28;20028;-71
2021/08/03 09:36:48;;;;;;;8.85;3.95;;;;;;;;;;5093965;28;20024;-71
2021/08/03 09:39:34;;;;;;;7.15;3.85;;;;;;;;;;5093476;28;20418;-71
2021/08/03 09:42:00;;;;;;;8.80;3.80;;;;;;;;;;5093794;28;20026;-71
2021/08/03 09:44:27;;;;;;;10.00;3.95;;;;;;;;;;5093453;28;20033;-71
2021/08/03 09:46:59;;;;;;;10.60;4.25;;;;;;;;;;5093702;28;20040;-71
2021/08/03 09:49:39;;;;;;;6.85;2.88;;;;;;;;;;5093818;28;20031;-71
2021/08/03 09:52:09;;;;;;;8.57;3.33;;;;;;;;;;5093399;28;20476;-71
2021/08/03 09:54:36;;;;;;;8.65;3.20;;;;;;;;;;5093743;28;20024;-71
2021/08/03 09:57:17;;;;;;;7.55;2.67;;;;;;;;;;5094028;28;20027;-71
2021/08/03 09:59:43;;;;;;;5.87;2.70;;;;;;;;;;5093265;28;20056;-71
2021/08/03 10:02:13;;;;;;;5.55;2.45;;;;;;;;;;5093533;28;20317;-71
2021/08/03 10:04:41;;;;;;;8.70;3.30;;;;;;;;;;5093491;28;20055;-70
2021/08/03 10:07:07;;;;;;;7.88;2.70;;;;;;;;;;5093270;28;20043;-71
2021/08/03 10:09:35;;;;;;;6.93;2.65;;;;;;;;;;5093475;28;20031;-72
2021/08/03 10:12:01;;;;;;;10.93;3.25;;;;;;;;;;5093709;28;20016;-71
2021/08/03 10:14:27;;;;;;;6.40;2.40;;;;;;;;;;5091851;28;20499;-71
2021/08/03 10:16:54;;;;;;;7.15;2.28;;;;;;;;;;5092154;28;20035;-71
2021/08/03 10:19:24;;;;;;;8.27;3.03;;;;;;;;;;5093153;28;20023;-71
2021/08/03 10:22:09;;;;;;;7.78;2.47;;;;;;;;;;5093654;28;20020;-71
2021/08/03 10:24:37;;;;;;;7.40;2.60;;;;;;;;;;5093612;28;20031;-71
2021/08/03 10:27:11;;;;;;;8.75;2.70;;;;;;;;;;5092842;28;20502;-71
2021/08/03 10:29:46;;;;;;;9.68;2.50;;;;;;;;;;5092046;28;20024;-71
2021/08/03 10:32:31;;;;;;;5.45;2.35;;;;;;;;;;5093285;28;20024;-71
2021/08/03 10:34:58;;;;;;;5.88;2.40;;;;;;;;;;5093020;28;20020;-71
2021/08/03 10:37:25;;;;;;;7.72;2.97;;;;;;;;;;5093328;28;20035;-71
2021/08/03 10:39:54;;;;;;;6.88;2.47;;;;;;;;;;5093378;28;20073;-71
2021/08/03 10:42:21;;;;;;;6.63;2.63;;;;;;;;;;5091549;28;20049;-70
2021/08/03 10:44:50;;;;;;;9.65;2.75;;;;;;;;;;5093422;28;20411;-71
2021/08/03 10:47:36;;;;;;;5.60;2.22;;;;;;;;;;5093137;28;20383;-71
2021/08/03 10:50:13;;;;;;;3.58;1.95;;;;;;;;;;5093223;28;20020;-71
2021/08/03 10:52:45;;;;;;;5.25;2.30;;;;;;;;;;5093637;28;20073;-72
2021/08/03 10:55:30;;;;;;;6.72;2.72;;;;;;;;;;5096653;28;20020;-71
2021/08/03 10:58:13;;;;;;;7.85;2.47;;;;;;;;;;5095576;28;20422;-71
2021/08/03 11:00:46;;;;;;;7.20;2.40;;;;;;;;;;5096888;28;20020;-70
2021/08/03 11:03:31;;;;;;;7.32;2.40;;;;;;;;;;5096531;28;20047;-70
2021/08/03 11:06:06;;;;;;;5.78;2.10;;;;;;;;;;5095282;28;20139;-70
2021/08/03 11:08:37;;;;;;;5.38;2.53;;;;;;;;;;5096443;28;20025;-70
2021/08/03 11:11:05;;;;;;;6.33;2.20;;;;;;;;;;5096974;28;20031;-70
2021/08/03 11:13:37;;;;;;;7.20;2.33;;;;;;;;;;5096749;28;20253;-70
2021/08/03 11:16:03;;;;;;;6.25;2.30;;;;;;;;;;5096246;28;20035;-70
2021/08/03 11:18:43;;;;;;;12.40;2.15;;;;;;;;;;5096656;28;20054;-70
2021/08/03 11:21:12;;;;;;;9.15;2.83;;;;;;;;;;5096474;28;20027;-70
2021/08/03 11:23:54;;;;;;;10.60;2.33;;;;;;;;;;5095917;28;20020;-70
2021/08/03 11:26:20;;;;;;;5.50;2.10;;;;;;;;;;5096296;28;20085;-71
2021/08/03 11:29:00;;;;;;;8.45;2.45;;;;;;;;;;5096481;28;20020;-71
2021/08/03 11:31:44;;;;;;;7.80;2.72;;;;;;;;;;5096142;28;20024;-71
2021/08/03 11:34:12;;;;;;;7.30;2.92;;;;;;;;;;5094940;28;20361;-71
2021/08/03 11:36:52;;;;;;;5.22;2.20;;;;;;;;;;5095797;28;20476;-71
2021/08/03 11:39:24;;;;;;;8.70;2.47;;;;;;;;;;5094844;28;20020;-71
2021/08/03 11:41:51;;;;;;;5.63;2.45;;;;;;;;;;5096078;28;20107;-72
2021/08/03 11:44:17;;;;;;;6.80;2.45;;;;;;;;;;5095642;28;20023;-71
2021/08/03 11:46:44;;;;;;;5.03;2.03;;;;;;;;;;5095747;28;20071;-71
2021/08/03 11:49:11;;;;;;;6.13;2.45;;;;;;;;;;5095912;28;20539;-71
2021/08/03 11:51:43;;;;;;;5.88;2.00;;;;;;;;;;5095363;28;20024;-71
2021/08/03 11:54:17;;;;;;;6.55;2.40;;;;;;;;;;5095891;28;20357;-72
2021/08/03 11:56:44;;;;;;;7.78;2.55;;;;;;;;;;5094491;28;20051;-71
2021/08/03 11:59:11;;;;;;;8.75;2.92;;;;;;;;;;5095416;28;20032;-71
2021/08/03 12:01:46;;;;;;;6.60;2.20;;;;;;;;;;5095776;28;20472;-72
2021/08/03 12:04:23;;;;;;;14.57;2.75;;;;;;;;;;5095914;28;20041;-72
2021/08/03 12:06:50;;;;;;;5.50;2.10;;;;;;;;;;5095257;28;20044;-71
2021/08/03 12:09:21;;;;;;;8.60;2.97;;;;;;;;;;5095631;28;20035;-72
2021/08/03 12:12:07;;;;;;;6.07;1.90;;;;;;;;;;5095107;28;20028;-72
2021/08/03 12:14:34;;;;;;;6.13;2.13;;;;;;;;;;5095371;28;20052;-71
2021/08/03 12:17:01;;;;;;;8.23;3.45;;;;;;;;;;5095385;28;20024;-72
2021/08/03 12:19:31;;;;;;;6.53;2.45;;;;;;;;;;5095141;28;20472;-71
2021/08/03 12:21:57;;;;;;;7.28;2.33;;;;;;;;;;5093962;28;20031;-72
2021/08/03 12:24:25;;;;;;;8.48;2.83;;;;;;;;;;5095351;28;20062;-71
2021/08/03 12:27:23;;;;;;;7.40;2.58;;;;;;;;;;5093368;28;20035;-71
2021/08/03 12:29:49;;;;;;;7.15;2.15;;;;;;;;;;5050150;28;20024;-71
2021/08/03 12:32:35;;;;;;;5.55;2.42;;;;;;;;;;5095106;28;20028;-71
2021/08/03 12:35:09;;;;;;;6.00;2.53;;;;;;;;;;5093421;28;20077;-71
2021/08/03 12:37:35;;;;;;;6.05;2.83;;;;;;;;;;5095014;28;20393;-72
2021/08/03 12:40:01;;;;;;;6.47;2.40;;;;;;;;;;5094547;28;20024;-71
2021/08/03 12:44:54;;;;;;;8.82;2.85;;;;;;;;;;5094735;28;20028;-71
2021/08/03 12:47:22;;;;;;;12.07;3.10;;;;;;;;;;5094393;28;20035;-71
2021/08/03 12:49:51;;;;;;;4.43;2.38;;;;;;;;;;5094709;28;20024;-72
2021/08/03 12:52:23;;;;;;;7.03;2.40;;;;;;;;;;5094660;28;20020;-71
2021/08/03 12:54:56;;;;;;;8.52;2.20;;;;;;;;;;5094383;28;20012;-71
2021/08/03 12:57:23;;;;;;;7.93;2.90;;;;;;;;;;5094641;28;20048;-71
2021/08/03 12:59:50;;;;;;;5.45;2.35;;;;;;;;;;5094572;28;20395;-71
2021/08/03 13:02:17;;;;;;;11.95;3.97;;;;;;;;;;5092785;28;20105;-71
2021/08/03 13:04:44;;;;;;;10.68;3.60;;;;;;;;;;5094227;28;20545;-70
2021/08/03 13:07:10;;;;;;;4.20;2.10;;;;;;;;;;5094523;28;20162;-71
2021/08/03 13:09:37;;;;;;;5.55;2.30;;;;;;;;;;5093960;28;20440;-71
2021/08/03 13:12:05;;;;;;;6.57;2.13;;;;;;;;;;5094385;28;20024;-71
2021/08/03 13:14:31;;;;;;;4.32;2.08;;;;;;;;;;5093813;28;20533;-71
2021/08/03 13:16:58;;;;;;;6.88;2.75;;;;;;;;;;5093852;28;20024;-71
2021/08/03 13:19:28;;;;;;;8.32;2.88;;;;;;;;;;5094206;28;20387;-71
2021/08/03 13:21:55;;;;;;;8.65;3.08;;;;;;;;;;5094123;28;20036;-71
2021/08/03 13:24:21;;;;;;;7.78;3.10;;;;;;;;;;5093740;28;20024;-72
2021/08/03 13:26:47;;;;;;;7.47;3.60;;;;;;;;;;5094035;28;20154;-71
2021/08/03 13:29:14;;;;;;;9.35;3.80;;;;;;;;;;5092268;28;20035;-71
2021/08/03 13:31:41;;;;;;;10.15;3.72;;;;;;;;;;5093942;28;20483;-70
2021/08/03 13:34:08;;;;;;;11.55;3.65;;;;;;;;;;5092703;28;20031;-71
2021/08/03 13:36:34;;;;;;;10.68;3.22;;;;;;;;;;5093707;28;20032;-71
2021/08/03 13:39:00;;;;;;;11.75;3.85;;;;;;;;;;5093882;28;20499;-71
2021/08/03 13:41:27;;;;;;;11.05;3.97;;;;;;;;;;5093883;28;20054;-71
2021/08/03 13:43:53;;;;;;;7.38;3.05;;;;;;;;;;5092151;28;20020;-71
2021/08/03 13:46:19;;;;;;;9.35;4.15;;;;;;;;;;5093652;28;20393;-71
2021/08/03 13:48:46;;;;;;;6.90;2.65;;;;;;;;;;5094268;28;20016;-71
2021/08/03 13:51:12;;;;;;;7.38;2.78;;;;;;;;;;5093300;28;20031;-71
2021/08/03 13:53:38;;;;;;;11.07;2.50;;;;;;;;;;5093692;28;20074;-71
2021/08/03 13:56:06;;;;;;;7.38;2.67;;;;;;;;;;5093794;28;20030;-71
2021/08/03 13:58:34;;;;;;;9.35;3.42;;;;;;;;;;5093278;28;20100;-71
2021/08/03 14:01:00;;;;;;;9.60;3.15;;;;;;;;;;5092340;28;20119;-71
2021/08/03 14:03:26;;;;;;;12.30;3.53;;;;;;;;;;5092354;28;20038;-71
2021/08/03 14:05:53;;;;;;;9.05;3.17;;;;;;;;;;5092894;28;20044;-71
2021/08/03 14:08:19;;;;;;;11.75;4.05;;;;;;;;;;5093503;28;20089;-71
2021/08/03 14:10:45;;;;;;;11.18;3.67;;;;;;;;;;5093650;28;20074;-71
2021/08/03 14:13:11;;;;;;;9.48;5.38;;;;;;;;;;5093147;28;20059;-70
2021/08/03 14:15:37;;;;;;;8.43;4.05;;;;;;;;;;5093462;28;20040;-70
2021/08/03 14:18:04;;;;;;;9.63;3.47;;;;;;;;;;5093403;28;20492;-70
2021/08/03 14:20:30;;;;;;;14.90;5.18;;;;;;;;;;5093022;28;20103;-70
2021/08/03 14:22:56;;;;;;;11.55;5.30;;;;;;;;;;5093334;28;20384;-71
2021/08/03 14:25:22;;;;;;;11.02;6.95;;;;;;;;;;5093340;28;20020;-70
2021/08/03 14:27:48;;;;;;;11.93;6.60;;;;;;;;;;5095824;28;20168;-70
2021/08/03 14:30:14;;;;;;;13.35;5.10;;;;;;;;;;5096195;28;20028;-70
2021/08/03 14:32:41;;;;;;;13.65;4.97;;;;;;;;;;5096998;28;20032;-71
2021/08/03 14:35:07;;;;;;;11.80;3.67;;;;;;;;;;5097308;28;20561;-71
2021/08/03 14:37:33;;;;;;;11.68;3.28;;;;;;;;;;5097251;28;20032;-71
2021/08/03 14:39:59;;;;;;;6.70;2.70;;;;;;;;;;5097210;28;20020;-71
2021/08/03 14:42:26;;;;;;;7.43;2.58;;;;;;;;;;5097161;28;20024;-71
2021/08/03 14:44:52;;;;;;;8.52;3.60;;;;;;;;;;5097194;28;20096;-71
2021/08/03 14:47:18;;;;;;;10.52;2.97;;;;;;;;;;5096820;28;20100;-71
2021/08/03 14:49:44;;;;;;;9.52;2.88;;;;;;;;;;5097127;28;20095;-71
2021/08/03 14:52:10;;;;;;;7.03;2.83;;;;;;;;;;5095861;28;20484;-71
2021/08/03 14:54:36;;;;;;;5.60;2.35;;;;;;;;;;5095391;28;20484;-71
2021/08/03 14:57:03;;;;;;;8.30;2.45;;;;;;;;;;5096947;28;20073;-71
2021/08/03 14:59:29;;;;;;;10.75;2.97;;;;;;;;;;5096785;28;20016;-71
2021/08/03 15:01:55;;;;;;;8.35;4.20;;;;;;;;;;5095211;28;20028;-71
2021/08/03 15:04:21;;;;;;;13.50;4.95;;;;;;;;;;5096817;28;20028;-71
2021/08/03 15:06:49;;;;;;;14.93;5.78;;;;;;;;;;5096455;28;20048;-71
2021/08/03 15:09:15;;;;;;;12.23;5.60;;;;;;;;;;5096222;28;20091;-71
2021/08/03 15:11:41;;;;;;;13.93;5.10;;;;;;;;;;5096766;28;20491;-71
2021/08/03 15:14:07;;;;;;;10.70;5.45;;;;;;;;;;5096563;28;20099;-71
2021/08/03 15:16:33;;;;;;;13.15;5.53;;;;;;;;;;5094964;28;20024;-72